Time;durP1;ratioP1;P1;durP2;ratioP2;P2;SDS_P1;SDS_P2;PMS_P1;PMS_P2;Temp;Humidity;BMP_temperature;BMP_pressure;BME280_temperature;BME280_humidity;BME280_pressure;Samples;Min_cycle;Max_cycle;Signal;HPM_P1;HPM_P2
2021/12/13 00:01:22;;;;;;;75.32;34.05;;;;;;;-144.19;100.00;77614.75;5013675;28;20050;-87
2021/12/13 00:03:53;;;;;;;69.93;31.85;;;;;;;-144.19;100.00;77608.84;5015842;28;20058;-88
2021/12/13 00:06:45;;;;;;;65.15;30.35;;;;;;;-144.19;100.00;77595.06;5016428;28;20046;-89
2021/12/13 00:09:15;;;;;;;67.30;32.10;;;;;;;-144.19;100.00;77599.00;5014342;28;20045;-87
2021/12/13 00:11:46;;;;;;;66.35;30.85;;;;;;;-144.19;100.00;77591.13;5014877;28;20046;-87
2021/12/13 00:14:20;;;;;;;67.20;30.80;;;;;;;-144.19;100.00;77599.00;5015191;28;20061;-90
2021/12/13 00:16:56;;;;;;;64.20;30.35;;;;;;;-144.19;100.00;77602.94;5014271;28;20133;-88
2021/12/13 00:19:30;;;;;;;66.45;31.85;;;;;;;-144.19;100.00;77602.94;5014412;28;20049;-87
2021/12/13 00:22:02;;;;;;;66.55;32.38;;;;;;;-144.19;100.00;77593.09;5014203;28;20068;-88
2021/12/13 00:24:32;;;;;;;70.32;31.90;;;;;;;-144.19;100.00;77583.25;5014630;28;20060;-86
2021/12/13 00:27:07;;;;;;;69.03;29.77;;;;;;;-144.19;100.00;77593.09;5014427;28;20045;-87
2021/12/13 00:30:00;;;;;;;66.18;31.50;;;;;;;-144.19;100.00;77599.00;5013982;28;20054;-87
2021/12/13 00:33:00;;;;;;;63.17;31.13;;;;;;;-144.19;100.00;77595.06;5015323;28;20050;-86
2021/12/13 00:35:36;;;;;;;69.80;33.83;;;;;;;-144.19;100.00;77591.13;5014932;28;20050;-86
2021/12/13 00:38:05;;;;;;;71.82;32.53;;;;;;;-144.19;100.00;77587.19;5013766;28;20054;-87
2021/12/13 00:40:34;;;;;;;69.30;34.60;;;;;;;-144.19;100.00;77591.13;5014837;28;20054;-87
2021/12/13 00:43:07;;;;;;;70.43;35.33;;;;;;;-144.19;100.00;77595.06;5014135;28;20050;-86
2021/12/13 00:45:37;;;;;;;73.90;33.97;;;;;;;-144.19;100.00;77591.13;5014675;28;20145;-87
2021/12/13 00:48:06;;;;;;;76.40;34.90;;;;;;;-144.19;100.00;77587.19;5013457;28;20060;-90
2021/12/13 00:50:41;;;;;;;68.57;33.97;;;;;;;-144.19;100.00;77591.13;5013443;28;20054;-88
2021/12/13 00:53:07;;;;;;;80.15;35.60;;;;;;;-144.19;100.00;77595.06;5014662;28;20060;-88
2021/12/13 00:55:36;;;;;;;73.63;36.25;;;;;;;-144.19;100.00;77587.19;5013593;28;20050;-89
2021/12/13 00:58:03;;;;;;;72.82;36.15;;;;;;;-144.19;100.00;77599.00;5012780;28;20059;-86
2021/12/13 01:00:42;;;;;;;71.85;34.70;;;;;;;-144.19;100.00;77602.94;5011935;28;20401;-85
2021/12/13 01:03:56;;;;;;;68.93;33.33;;;;;;;-144.19;100.00;77595.06;5013418;28;20124;-88
2021/12/13 01:06:41;;;;;;;76.70;34.80;;;;;;;-144.19;100.00;77587.19;5005368;28;20060;-87
2021/12/13 01:09:45;;;;;;;74.53;36.38;;;;;;;-144.19;100.00;77600.97;5014321;28;20052;-88
2021/12/13 01:12:18;;;;;;;74.60;35.58;;;;;;;-144.19;100.00;77599.00;5013582;28;20427;-87
2021/12/13 01:14:58;;;;;;;73.32;34.17;;;;;;;-144.19;100.00;77599.00;5014696;28;20132;-87
2021/12/13 01:18:20;;;;;;;67.38;32.08;;;;;;;-144.19;100.00;77602.94;5012674;28;20054;-88
2021/12/13 01:20:56;;;;;;;73.55;35.45;;;;;;;-144.19;100.00;77600.97;5008920;28;20072;-87
2021/12/13 01:23:41;;;;;;;79.72;36.70;;;;;;;-144.19;100.00;77614.75;5013507;28;20045;-89
2021/12/13 01:28:48;;;;;;;71.43;34.97;;;;;;;-144.19;100.00;77614.75;5014293;28;20056;-86
2021/12/13 01:31:20;;;;;;;71.97;34.03;;;;;;;-144.19;100.00;77622.63;5013375;28;20054;-88
2021/12/13 01:33:50;;;;;;;76.65;35.28;;;;;;;-144.19;100.00;77614.75;5012673;28;20085;-86
2021/12/13 01:36:24;;;;;;;73.35;34.58;;;;;;;-144.19;100.00;77618.69;5012335;28;20499;-87
2021/12/13 01:39:00;;;;;;;70.95;34.15;;;;;;;-144.19;100.00;77618.69;5014150;28;20515;-85
2021/12/13 01:41:34;;;;;;;74.72;33.40;;;;;;;-144.19;100.00;77628.53;5012965;28;20054;-87
2021/12/13 01:44:13;;;;;;;77.07;33.85;;;;;;;-144.19;100.00;77626.56;5012134;28;20061;-89
2021/12/13 01:46:48;;;;;;;74.15;33.70;;;;;;;-144.19;100.00;77622.63;5012615;28;20053;-88
2021/12/13 01:49:16;;;;;;;65.15;32.10;;;;;;;-144.19;100.00;77630.50;5012299;28;20119;-87
2021/12/13 01:51:42;;;;;;;;;;;;;;;-144.19;100.00;77630.50;5013432;28;20493;-86
2021/12/13 01:54:21;;;;;;;68.30;31.05;;;;;;;-144.19;100.00;77632.47;5013560;28;19936;-86
2021/12/13 01:56:59;;;;;;;70.10;32.75;;;;;;;-144.19;100.00;77634.44;5012331;28;20426;-88
2021/12/13 02:02:23;;;;;;;65.45;30.90;;;;;;;-144.19;100.00;77650.19;5012689;28;20061;-88
2021/12/13 02:05:25;;;;;;;62.45;32.03;;;;;;;-144.19;100.00;77642.31;5012357;28;20064;-87
2021/12/13 02:07:59;;;;;;;66.32;31.77;;;;;;;-144.19;100.00;77646.25;5013266;28;20050;-84
2021/12/13 02:10:32;;;;;;;64.43;32.47;;;;;;;-144.19;100.00;77650.19;5011549;28;20050;-87
2021/12/13 02:13:03;;;;;;;59.13;29.58;;;;;;;-144.19;100.00;77646.25;5013091;28;20054;-88
2021/12/13 02:18:21;;;;;;;65.55;30.58;;;;;;;-144.19;100.00;77654.13;5013277;28;20046;-86
2021/12/13 02:21:16;;;;;;;64.55;29.35;;;;;;;-144.19;100.00;77650.19;5012932;28;20329;-87
2021/12/13 02:23:48;;;;;;;60.65;29.92;;;;;;;-144.19;100.00;77662.00;5012105;28;20495;-85
2021/12/13 02:26:14;;;;;;;61.55;30.25;;;;;;;-144.19;100.00;77650.19;5013053;28;20057;-88
2021/12/13 02:28:43;;;;;;;61.47;31.92;;;;;;;-144.19;100.00;77644.28;5011510;28;20049;-87
2021/12/13 02:31:15;;;;;;;67.22;31.67;;;;;;;-144.19;100.00;77650.19;5011496;28;20554;-89
2021/12/13 02:33:46;;;;;;;69.55;32.08;;;;;;;-144.19;100.00;77646.25;5011484;28;20056;-88
2021/12/13 02:36:22;;;;;;;63.03;31.13;;;;;;;-144.19;100.00;77634.44;5011285;28;20424;-88
2021/12/13 02:38:53;;;;;;;66.47;33.08;;;;;;;-144.19;100.00;77626.56;5011333;28;20520;-86
2021/12/13 02:41:24;;;;;;;71.40;34.33;;;;;;;-144.19;100.00;77646.25;5012374;28;20056;-88
2021/12/13 02:43:55;;;;;;;68.07;33.35;;;;;;;-144.19;100.00;77650.19;5011574;28;20061;-86
2021/12/13 02:46:22;;;;;;;61.92;31.08;;;;;;;-144.19;100.00;77646.25;5010801;28;20057;-89
2021/12/13 02:48:59;;;;;;;65.55;32.67;;;;;;;-144.19;100.00;77634.44;5012516;28;20073;-85
2021/12/13 02:51:37;;;;;;;66.55;32.85;;;;;;;-144.19;100.00;77646.25;5011526;28;20060;-87
2021/12/13 02:54:11;;;;;;;67.85;33.90;;;;;;;-144.19;100.00;77646.25;5011316;28;20064;-87
2021/12/13 02:56:46;;;;;;;62.30;30.13;;;;;;;-144.19;100.00;77648.22;5010322;28;20061;-88
2021/12/13 02:59:15;;;;;;;67.47;32.83;;;;;;;-144.19;100.00;77646.25;5011198;28;20427;-89
2021/12/13 03:02:13;;;;;;;68.40;33.03;;;;;;;-144.19;100.00;77622.63;5009777;28;20046;-88
2021/12/13 03:04:41;;;;;;;70.27;33.33;;;;;;;-144.19;100.00;77638.38;4995723;28;20076;-89
2021/12/13 03:07:13;;;;;;;67.55;32.10;;;;;;;-144.19;100.00;77630.50;5010006;28;20428;-87
2021/12/13 03:09:41;;;;;;;55.05;29.42;;;;;;;-144.19;100.00;77650.19;5011163;28;20077;-86
2021/12/13 03:12:13;;;;;;;65.28;32.85;;;;;;;-144.19;100.00;77646.25;5010868;28;20423;-86
2021/12/13 03:14:45;;;;;;;66.32;31.40;;;;;;;-144.19;100.00;77642.31;5012456;28;20050;-89
2021/12/13 03:17:30;;;;;;;68.03;33.33;;;;;;;-144.19;100.00;77646.25;5011842;28;20057;-90
2021/12/13 03:20:15;;;;;;;69.65;33.00;;;;;;;-144.19;100.00;77630.50;5010655;28;20057;-88
2021/12/13 03:23:03;;;;;;;74.28;35.22;;;;;;;-144.19;100.00;77644.28;5011526;28;20050;-89
2021/12/13 03:26:03;;;;;;;68.47;31.40;;;;;;;-144.19;100.00;77644.28;5014967;28;20057;-84
2021/12/13 03:29:01;;;;;;;72.32;34.03;;;;;;;-144.19;100.00;77656.09;5014798;28;20488;-86
2021/12/13 03:31:32;;;;;;;73.35;34.28;;;;;;;-144.19;100.00;77656.09;5014619;28;20050;-86
2021/12/13 03:34:24;;;;;;;64.18;31.83;;;;;;;-144.19;100.00;77658.06;5016380;28;20054;-87
2021/12/13 03:37:11;;;;;;;66.90;34.25;;;;;;;-144.19;100.00;77662.00;4995269;28;20515;-86
2021/12/13 03:39:42;;;;;;;65.55;32.72;;;;;;;-144.19;100.00;77662.00;5011082;28;20057;-86
2021/12/13 03:42:16;;;;;;;65.13;31.67;;;;;;;-144.19;100.00;77662.00;4995208;28;20057;-87
2021/12/13 03:44:48;;;;;;;64.10;32.10;;;;;;;-144.19;100.00;77634.44;5011635;28;20065;-87
2021/12/13 03:47:44;;;;;;;62.08;31.60;;;;;;;-144.19;100.00;77662.00;5011133;28;20046;-90
2021/12/13 03:50:15;;;;;;;61.22;31.50;;;;;;;-144.19;100.00;77665.94;4994982;28;20584;-87
2021/12/13 03:52:45;;;;;;;55.03;27.55;;;;;;;-144.19;100.00;77665.94;4996287;28;20050;-88
2021/12/13 03:55:13;;;;;;;58.42;30.55;;;;;;;-144.19;100.00;77665.94;5003539;28;20057;-89
2021/12/13 03:57:46;;;;;;;52.90;28.38;;;;;;;-144.19;100.00;77665.94;5013997;28;20084;-91
2021/12/13 04:00:16;;;;;;;58.70;27.15;;;;;;;-144.19;100.00;77667.91;5014563;28;20050;-87
2021/12/13 04:02:43;;;;;;;54.40;28.05;;;;;;;-144.19;100.00;77665.94;5014253;28;20432;-86
2021/12/13 04:05:15;;;;;;;49.58;27.17;;;;;;;-144.19;100.00;77671.84;5015652;28;20050;-88
2021/12/13 04:07:50;;;;;;;52.08;25.95;;;;;;;-144.19;100.00;77662.00;5013974;28;20499;-86
2021/12/13 04:10:27;;;;;;;50.20;25.30;;;;;;;-144.19;100.00;77673.81;5014389;28;20053;-90
2021/12/13 04:12:57;;;;;;;49.55;24.52;;;;;;;-144.19;100.00;77673.81;5015407;28;20046;-88
2021/12/13 04:15:49;;;;;;;43.85;24.10;;;;;;;-144.19;100.00;77679.72;5015560;28;20046;-88
2021/12/13 04:21:16;;;;;;;42.53;23.30;;;;;;;-144.19;100.00;77665.94;5015128;28;20052;-89
2021/12/13 04:23:50;;;;;;;43.67;22.90;;;;;;;-144.19;100.00;77662.00;5013108;28;20061;-85
2021/12/13 04:26:17;;;;;;;40.47;21.63;;;;;;;-144.19;100.00;77673.81;5013666;28;20054;-87
2021/12/13 04:28:48;;;;;;;39.70;21.35;;;;;;;-144.19;100.00;77675.78;5013138;28;20068;-87
2021/12/13 04:31:19;;;;;;;40.33;21.52;;;;;;;-144.19;100.00;77677.75;5013608;28;20542;-86
2021/12/13 04:33:57;;;;;;;36.10;20.13;;;;;;;-144.19;100.00;77685.63;5013099;28;20064;-88
2021/12/13 04:36:40;;;;;;;35.13;19.90;;;;;;;-144.19;100.00;77687.59;5013040;28;20050;-87
2021/12/13 04:39:13;;;;;;;35.60;19.90;;;;;;;-144.19;100.00;77681.69;5014441;28;20297;-88
2021/12/13 04:41:48;;;;;;;38.08;21.48;;;;;;;-144.19;100.00;77681.69;5014684;28;20056;-85
2021/12/13 04:44:20;;;;;;;39.65;21.50;;;;;;;-144.19;100.00;77697.44;5014314;28;20057;-89
2021/12/13 04:46:51;;;;;;;38.83;20.55;;;;;;;-144.19;100.00;77701.38;5014280;28;20401;-90
2021/12/13 04:49:20;;;;;;;40.47;20.92;;;;;;;-144.19;100.00;77683.66;5015089;28;20053;-88
2021/12/13 04:52:09;;;;;;;36.25;21.02;;;;;;;-144.19;100.00;77693.50;5014928;28;20046;-87
2021/12/13 04:54:37;;;;;;;;;;;;;;;-144.19;100.00;77689.56;5012975;28;20049;-87
2021/12/13 04:57:05;;;;;;;37.70;20.88;;;;;;;-144.19;100.00;77689.56;5013552;28;19922;-85
2021/12/13 04:59:32;;;;;;;41.03;21.60;;;;;;;-144.19;100.00;77681.69;5012152;28;20053;-88
2021/12/13 05:02:01;;;;;;;;;;;;;;;-144.19;100.00;77691.53;5012227;28;20057;-86
2021/12/13 05:04:29;;;;;;;37.20;20.65;;;;;;;-144.19;100.00;77705.31;5012494;28;19935;-86
2021/12/13 05:06:59;;;;;;;33.67;19.38;;;;;;;-144.19;100.00;77713.19;5013673;28;20053;-86
2021/12/13 05:09:27;;;;;;;32.10;21.17;;;;;;;-144.19;100.00;77703.34;5012569;28;20072;-89
2021/12/13 05:12:09;;;;;;;34.80;20.05;;;;;;;-144.19;100.00;77697.44;5012408;28;20037;-88
2021/12/13 05:14:48;;;;;;;30.40;18.27;;;;;;;-144.19;100.00;77725.00;5012712;28;20060;-90
2021/12/13 05:17:25;;;;;;;31.65;18.92;;;;;;;-144.19;100.00;77717.13;5011792;28;20057;-89
2021/12/13 05:20:06;;;;;;;29.35;18.73;;;;;;;-144.19;100.00;77725.00;5012337;28;20400;-90
2021/12/13 05:22:39;;;;;;;30.17;17.40;;;;;;;-144.19;100.00;77740.75;5011997;28;20049;-88
2021/12/13 05:25:05;;;;;;;32.10;18.48;;;;;;;-144.19;100.00;77723.03;5013392;28;20518;-86
2021/12/13 05:27:37;;;;;;;31.80;18.23;;;;;;;-144.19;100.00;77728.94;5013099;28;20424;-87
2021/12/13 05:30:24;;;;;;;31.98;19.20;;;;;;;-144.19;100.00;77738.78;5012491;28;20049;-88
2021/12/13 05:32:55;;;;;;;34.30;18.55;;;;;;;-144.19;100.00;77740.75;5008724;28;20057;-87
2021/12/13 05:35:30;;;;;;;32.42;17.75;;;;;;;-144.19;100.00;77758.47;5011958;28;20050;-88
2021/12/13 05:38:01;;;;;;;34.55;19.98;;;;;;;-144.19;100.00;77758.47;5011661;28;20064;-87
2021/12/13 05:40:43;;;;;;;38.97;19.52;;;;;;;-144.19;100.00;77754.53;5011213;28;20053;-85
2021/12/13 05:43:30;;;;;;;36.90;21.27;;;;;;;-144.19;100.00;77760.44;5011148;28;20053;-86
2021/12/13 05:46:07;;;;;;;33.75;18.30;;;;;;;-144.19;100.00;77756.50;5010898;28;20645;-88
2021/12/13 05:48:33;;;;;;;33.75;19.05;;;;;;;-144.19;100.00;77776.19;5011486;28;20061;-85
2021/12/13 05:51:21;;;;;;;34.38;18.00;;;;;;;-144.19;100.00;77756.50;5011791;28;20061;-84
2021/12/13 05:54:15;;;;;;;32.15;18.42;;;;;;;-144.19;100.00;77764.38;5001286;28;20056;-88
2021/12/13 05:56:45;;;;;;;33.88;18.42;;;;;;;-144.19;100.00;77772.25;5003413;28;20054;-86
2021/12/13 05:59:27;;;;;;;34.35;18.80;;;;;;;-144.19;100.00;77784.06;5011456;28;20416;-85
2021/12/13 06:02:06;;;;;;;34.53;18.92;;;;;;;-144.19;100.00;77784.06;5011310;28;20055;-83
2021/12/13 06:04:45;;;;;;;32.08;19.20;;;;;;;-144.19;100.00;77772.25;5012530;28;20104;-87
2021/12/13 06:07:24;;;;;;;33.22;19.77;;;;;;;-144.19;100.00;77784.06;5010402;28;20050;-87
2021/12/13 06:10:13;;;;;;;38.70;20.42;;;;;;;-144.19;100.00;77780.13;5012634;28;20057;-86
2021/12/13 06:12:55;;;;;;;33.97;18.98;;;;;;;-144.19;100.00;77795.88;5010888;28;20042;-88
2021/12/13 06:15:29;;;;;;;33.65;18.85;;;;;;;-144.19;100.00;77788.00;5011691;28;21356;-87
2021/12/13 06:18:19;;;;;;;34.20;19.60;;;;;;;-144.19;100.00;77807.69;5010963;28;20054;-87
2021/12/13 06:21:02;;;;;;;32.42;19.05;;;;;;;-144.19;100.00;77807.69;5012927;28;20054;-85
2021/12/13 06:23:33;;;;;;;35.92;19.90;;;;;;;-144.19;100.00;77815.56;5012130;28;20049;-84
2021/12/13 06:26:07;;;;;;;33.65;18.80;;;;;;;-144.19;100.00;77813.59;5011135;28;20050;-88
2021/12/13 06:28:37;;;;;;;35.75;20.85;;;;;;;-144.19;100.00;77809.66;5011184;28;20050;-86
2021/12/13 06:31:08;;;;;;;33.50;19.42;;;;;;;-144.19;100.00;77823.44;5012498;28;20492;-86
2021/12/13 06:33:52;;;;;;;35.38;21.00;;;;;;;-144.19;100.00;77821.47;5011619;28;20404;-85
2021/12/13 06:36:26;;;;;;;35.97;21.40;;;;;;;-144.19;100.00;77819.50;5011157;28;20504;-86
2021/12/13 06:39:27;;;;;;;35.38;20.35;;;;;;;-144.19;100.00;77839.19;5013948;28;20065;-87
2021/12/13 06:42:05;;;;;;;34.85;20.05;;;;;;;-144.19;100.00;77839.19;4993828;28;20053;-87
2021/12/13 06:44:39;;;;;;;40.67;19.67;;;;;;;-144.19;100.00;77835.25;5011346;28;20507;-88
2021/12/13 06:47:18;;;;;;;37.10;20.23;;;;;;;-144.19;100.00;77837.22;5011449;28;20050;-84
2021/12/13 06:49:53;;;;;;;48.85;22.92;;;;;;;-144.19;100.00;77843.13;5012541;28;20409;-89
2021/12/13 06:52:21;;;;;;;40.35;22.65;;;;;;;-144.19;100.00;77843.13;5012994;28;20049;-84
2021/12/13 06:54:53;;;;;;;40.70;24.52;;;;;;;-144.19;100.00;77839.19;5010942;28;20061;-86
2021/12/13 06:57:31;;;;;;;44.90;23.60;;;;;;;-144.19;100.00;77854.97;5011678;28;20050;-87
2021/12/13 07:00:19;;;;;;;41.00;22.92;;;;;;;-144.19;100.00;77856.94;5010906;28;20064;-88
2021/12/13 07:02:58;;;;;;;42.65;25.63;;;;;;;-144.19;100.00;77860.88;5001062;28;20056;-88
2021/12/13 07:05:28;;;;;;;46.20;27.40;;;;;;;-144.19;100.00;77847.09;5011039;28;20054;-88
2021/12/13 07:08:05;;;;;;;47.42;26.88;;;;;;;-144.19;100.00;77843.13;5009973;28;20057;-87
2021/12/13 07:10:32;;;;;;;49.63;29.42;;;;;;;-144.19;100.00;77851.03;5010575;28;20512;-87
2021/12/13 07:13:10;;;;;;;;;;;;;;;-144.19;100.00;77851.03;5009641;28;20050;-89
2021/12/13 07:15:48;;;;;;;47.13;26.15;;;;;;;-144.19;100.00;77858.91;5010662;28;19932;-88
2021/12/13 07:18:28;;;;;;;45.58;26.77;;;;;;;-144.19;100.00;77853.00;5010174;28;20141;-84
2021/12/13 07:21:20;;;;;;;51.30;28.83;;;;;;;-144.19;100.00;77860.88;5010107;28;20060;-84
2021/12/13 07:24:05;;;;;;;53.05;30.05;;;;;;;-144.19;100.00;77866.78;5009447;28;20050;-87
2021/12/13 07:26:41;;;;;;;51.90;30.50;;;;;;;-144.19;100.00;77860.88;5010401;28;20057;-87
2021/12/13 07:29:13;;;;;;;50.22;30.67;;;;;;;-144.19;100.00;77860.88;5011069;28;20050;-87
2021/12/13 07:31:42;;;;;;;52.30;29.75;;;;;;;-144.19;100.00;77847.09;5010719;28;20060;-84
2021/12/13 07:34:13;;;;;;;55.88;32.78;;;;;;;-144.19;100.00;77851.03;5010908;28;20046;-87
2021/12/13 07:36:40;;;;;;;53.85;31.33;;;;;;;-144.19;100.00;77870.72;5011628;28;20060;-86
2021/12/13 07:39:14;;;;;;;53.58;30.75;;;;;;;-144.19;100.00;77864.81;5010839;28;20061;-86
2021/12/13 07:41:53;;;;;;;50.75;32.00;;;;;;;-144.19;100.00;77870.72;5012135;28;20050;-83
2021/12/13 07:44:41;;;;;;;53.55;31.50;;;;;;;-144.19;100.00;77868.75;5010605;28;20520;-87
2021/12/13 07:47:23;;;;;;;53.72;31.02;;;;;;;-144.19;100.00;77866.78;5010565;28;20050;-86
2021/12/13 07:49:57;;;;;;;53.60;30.95;;;;;;;-144.19;100.00;77892.38;5010982;28;20049;-86
2021/12/13 07:52:37;;;;;;;54.42;32.88;;;;;;;-144.19;100.00;77878.59;5012293;28;20447;-86
2021/12/13 07:55:15;;;;;;;52.70;32.13;;;;;;;-144.19;100.00;77886.47;5022640;28;20057;-86
2021/12/13 07:57:42;;;;;;;53.05;31.40;;;;;;;-144.19;100.00;77874.66;5014813;28;20522;-87
2021/12/13 08:00:12;;;;;;;50.15;31.27;;;;;;;-144.19;100.00;77890.41;5011179;28;20078;-84
2021/12/13 08:02:38;;;;;;;53.72;32.72;;;;;;;-144.19;100.00;77890.41;5012085;28;20049;-84
2021/12/13 08:05:13;;;;;;;57.30;32.75;;;;;;;-144.19;100.00;77882.53;5011037;28;20141;-86
2021/12/13 08:07:54;;;;;;;57.72;31.83;;;;;;;-144.19;100.00;77886.47;5011081;28;20056;-89
2021/12/13 08:10:25;;;;;;;59.15;33.80;;;;;;;-144.19;100.00;77884.50;5015928;28;20054;-90
2021/12/13 08:13:23;;;;;;;60.50;34.13;;;;;;;-144.19;100.00;77902.22;5014249;28;20046;-87
2021/12/13 08:16:09;;;;;;;58.05;32.90;;;;;;;-144.19;100.00;77900.25;5013887;28;20141;-88
2021/12/13 08:18:39;;;;;;;53.10;32.00;;;;;;;-144.19;100.00;77914.03;5014924;28;20052;-84
2021/12/13 08:21:21;;;;;;;56.17;32.03;;;;;;;-144.19;100.00;77910.09;5014477;28;20053;-87
2021/12/13 08:24:01;;;;;;;50.05;29.80;;;;;;;-144.19;100.00;77898.28;5014278;28;20053;-89
2021/12/13 08:26:35;;;;;;;51.03;31.02;;;;;;;-144.19;100.00;77910.09;5013518;28;20054;-85
2021/12/13 08:29:09;;;;;;;50.08;30.55;;;;;;;-144.19;100.00;77917.97;5013414;28;20053;-89
2021/12/13 08:31:39;;;;;;;47.58;29.35;;;;;;;-144.19;100.00;77925.84;5015324;28;20060;-87
2021/12/13 08:34:14;;;;;;;52.03;30.95;;;;;;;-144.19;100.00;77916.00;5015014;28;20050;-84
2021/12/13 08:36:44;;;;;;;47.40;29.42;;;;;;;-144.19;100.00;77919.94;5015267;28;20050;-84
2021/12/13 08:39:18;;;;;;;49.30;30.95;;;;;;;-144.19;100.00;77919.94;5014126;28;20057;-87
2021/12/13 08:41:52;;;;;;;48.47;29.80;;;;;;;-144.19;100.00;77927.81;5013828;28;20420;-87
2021/12/13 08:44:25;;;;;;;46.03;28.35;;;;;;;-144.19;100.00;77937.66;5014958;28;20056;-86
2021/12/13 08:46:51;;;;;;;47.70;30.08;;;;;;;-144.19;100.00;77925.84;5014496;28;20056;-88
2021/12/13 08:49:29;;;;;;;45.87;30.20;;;;;;;-144.19;100.00;77937.66;5014134;28;20054;-87
2021/12/13 08:52:13;;;;;;;45.47;28.63;;;;;;;-144.19;100.00;77937.66;5013971;28;20289;-86
2021/12/13 08:54:55;;;;;;;53.05;32.25;;;;;;;-144.19;100.00;77914.03;5014091;28;20046;-84
2021/12/13 08:57:34;;;;;;;48.88;30.70;;;;;;;-144.19;100.00;77916.00;5014702;28;20045;-87
2021/12/13 09:00:15;;;;;;;50.55;30.38;;;;;;;-144.19;100.00;77910.09;5013965;28;20073;-84
2021/12/13 09:02:54;;;;;;;50.08;30.88;;;;;;;-144.19;100.00;77917.97;5013646;28;20053;-88
2021/12/13 09:05:56;;;;;;;52.42;31.48;;;;;;;-144.19;100.00;77917.97;5014381;28;20057;-85
2021/12/13 09:08:28;;;;;;;52.13;31.73;;;;;;;-144.19;100.00;77923.88;4983101;28;20060;-84
2021/12/13 09:11:26;;;;;;;55.13;31.02;;;;;;;-144.19;100.00;77931.75;5013116;28;20056;-83
2021/12/13 09:14:14;;;;;;;51.85;31.30;;;;;;;-144.19;100.00;77943.56;5014046;28;20058;-84
2021/12/13 09:17:07;;;;;;;52.65;29.90;;;;;;;-144.19;100.00;77945.53;5014397;28;20542;-84
2021/12/13 09:19:35;;;;;;;53.13;30.35;;;;;;;-144.19;100.00;77933.72;5013245;28;20077;-86
2021/12/13 09:22:14;;;;;;;48.53;29.20;;;;;;;-144.19;100.00;77945.53;5012307;28;20045;-86
2021/12/13 09:24:46;;;;;;;50.40;32.10;;;;;;;-144.19;100.00;77947.50;5012121;28;20528;-86
2021/12/13 09:27:23;;;;;;;53.45;29.70;;;;;;;-144.19;100.00;77945.53;5010044;28;20924;-85
2021/12/13 09:30:14;;;;;;;54.30;31.58;;;;;;;-144.19;100.00;77945.53;5012596;28;20412;-88
2021/12/13 09:32:52;;;;;;;47.70;29.90;;;;;;;-144.19;100.00;77949.47;5012255;28;20504;-84
2021/12/13 09:35:24;;;;;;;44.67;29.50;;;;;;;-144.19;100.00;77961.28;5009600;28;20053;-87
2021/12/13 09:37:54;;;;;;;45.90;30.45;;;;;;;-144.19;100.00;77953.41;5009567;28;20320;-87
2021/12/13 09:40:29;;;;;;;44.17;28.52;;;;;;;-144.19;100.00;77953.41;5012297;28;20068;-87
2021/12/13 09:42:57;;;;;;;49.47;29.98;;;;;;;-144.19;100.00;77957.34;5013877;28;20056;-85
2021/12/13 09:45:27;;;;;;;;;;;;;;;-144.19;100.00;77953.41;5013162;28;20480;-84
2021/12/13 09:47:54;;;;;;;47.25;27.67;;;;;;;-144.19;100.00;77957.34;5012332;28;19922;-86
2021/12/13 09:50:26;;;;;;;44.28;28.38;;;;;;;-144.19;100.00;77949.47;5013515;28;20496;-84
2021/12/13 09:53:07;;;;;;;48.67;29.95;;;;;;;-144.19;100.00;77945.53;5014740;28;20056;-86
2021/12/13 09:55:41;;;;;;;50.55;30.80;;;;;;;-144.19;100.00;77947.50;5013391;28;20054;-86
2021/12/13 09:58:17;;;;;;;47.30;29.35;;;;;;;-144.19;100.00;77969.16;5011898;28;20413;-83
2021/12/13 10:00:57;;;;;;;45.03;28.13;;;;;;;-144.19;100.00;77977.03;5011225;28;20679;-83
2021/12/13 10:03:32;;;;;;;45.53;27.73;;;;;;;-144.19;100.00;77980.97;5013453;28;20049;-86
2021/12/13 10:06:05;;;;;;;45.70;27.60;;;;;;;-144.19;100.00;77980.97;5012420;28;20060;-85
2021/12/13 10:08:46;;;;;;;45.20;27.83;;;;;;;-144.19;100.00;77973.09;5013476;28;20056;-84
2021/12/13 10:11:21;;;;;;;46.05;28.00;;;;;;;-144.19;100.00;77961.28;5013390;28;20050;-85
2021/12/13 10:13:49;;;;;;;40.90;26.85;;;;;;;-144.19;100.00;77975.06;5011914;28;20057;-86
2021/12/13 10:16:26;;;;;;;39.55;25.75;;;;;;;-144.19;100.00;77963.25;5011638;28;20042;-86
2021/12/13 10:18:54;;;;;;;44.72;26.52;;;;;;;-144.19;100.00;77957.34;5012124;28;20061;-85
2021/12/13 10:21:24;;;;;;;39.45;26.60;;;;;;;-144.19;100.00;77965.22;5013001;28;20054;-82
2021/12/13 10:23:54;;;;;;;39.88;24.15;;;;;;;-144.19;100.00;77977.03;5012842;28;20056;-86
2021/12/13 10:26:29;;;;;;;41.30;26.30;;;;;;;-144.19;100.00;77977.03;5011036;28;20138;-84
2021/12/13 10:29:00;;;;;;;37.97;25.02;;;;;;;-144.19;100.00;77977.03;5011832;28;20080;-89
2021/12/13 10:31:47;;;;;;;37.17;24.80;;;;;;;-144.19;100.00;77961.28;5012698;28;20057;-85
2021/12/13 10:34:18;;;;;;;35.58;24.67;;;;;;;-144.19;100.00;77945.53;5012670;28;20042;-86
2021/12/13 10:36:51;;;;;;;38.97;24.95;;;;;;;-144.19;100.00;77965.22;5010945;28;20076;-87
2021/12/13 10:39:26;;;;;;;32.65;23.80;;;;;;;-144.19;100.00;77959.31;5012422;28;20056;-85
2021/12/13 10:42:07;;;;;;;35.88;24.40;;;;;;;-144.19;100.00;77961.28;5011334;28;20518;-85
2021/12/13 10:44:34;;;;;;;32.85;23.63;;;;;;;-144.19;100.00;77977.03;5011596;28;20419;-86
2021/12/13 10:47:06;;;;;;;41.97;24.42;;;;;;;-144.19;100.00;77969.16;5013283;28;20053;-87
2021/12/13 10:49:38;;;;;;;31.27;22.02;;;;;;;-144.19;100.00;77969.16;5012475;28;20057;-85
2021/12/13 10:52:12;;;;;;;32.67;22.25;;;;;;;-144.19;100.00;77973.09;5013655;28;20050;-85
2021/12/13 10:54:44;;;;;;;32.10;21.85;;;;;;;-144.19;100.00;77973.09;5012462;28;20053;-87
2021/12/13 10:57:16;;;;;;;35.58;22.95;;;;;;;-144.19;100.00;77943.56;5012366;28;20514;-87
2021/12/13 10:59:44;;;;;;;34.90;22.48;;;;;;;-144.19;100.00;77961.28;5010630;28;20081;-88
2021/12/13 11:02:16;;;;;;;36.08;22.38;;;;;;;-144.19;100.00;77953.41;5010416;28;20430;-86
2021/12/13 11:04:52;;;;;;;32.25;21.55;;;;;;;-144.19;100.00;77957.34;5012168;28;20050;-86
2021/12/13 11:07:19;;;;;;;30.77;20.85;;;;;;;-144.19;100.00;77947.50;5011627;28;20056;-88
2021/12/13 11:09:48;;;;;;;31.00;20.08;;;;;;;-144.19;100.00;77965.22;5012091;28;20050;-84
2021/12/13 11:12:30;;;;;;;29.10;20.13;;;;;;;-144.19;100.00;77969.16;5011417;28;20050;-86
2021/12/13 11:15:03;;;;;;;32.67;21.42;;;;;;;-144.19;100.00;77977.03;5012119;28;20407;-85
2021/12/13 11:17:31;;;;;;;26.13;18.88;;;;;;;-144.19;100.00;77965.22;5010409;28;20423;-88
2021/12/13 11:20:04;;;;;;;28.58;19.95;;;;;;;-144.19;100.00;77973.09;5010877;28;20797;-87
2021/12/13 11:22:32;;;;;;;29.35;19.95;;;;;;;-144.19;100.00;77971.13;5010706;28;20434;-84
2021/12/13 11:25:08;;;;;;;;;;;;;;;-144.19;100.00;77953.41;5010747;28;20050;-85
2021/12/13 11:27:36;;;;;;;30.25;19.35;;;;;;;-144.19;100.00;77967.19;5010199;28;19921;-90
2021/12/13 11:30:09;;;;;;;36.17;21.77;;;;;;;-144.19;100.00;77965.22;5012171;28;20049;-87
2021/12/13 11:32:38;;;;;;;30.60;20.17;;;;;;;-144.19;100.00;77977.03;5011653;28;20056;-87
2021/12/13 11:35:08;;;;;;;31.33;20.98;;;;;;;-144.19;100.00;77949.47;5010806;28;20046;-86
2021/12/13 11:38:20;;;;;;;27.20;20.50;;;;;;;-144.19;100.00;77967.19;5012476;28;20054;-83
2021/12/13 11:41:19;;;;;;;30.58;20.58;;;;;;;-144.19;100.00;77937.66;5011286;28;20137;-86
2021/12/13 11:44:10;;;;;;;29.42;19.98;;;;;;;-144.19;100.00;77953.41;5011203;28;20048;-88
2021/12/13 11:47:14;;;;;;;29.20;19.65;;;;;;;-144.19;100.00;77953.41;5014141;28;20050;-86